createdAt,value
2023-09-07T00:01:09.089Z,3.07
2023-09-07T00:03:41.774Z,3.63
2023-09-07T00:06:12.734Z,4.27
2023-09-07T00:08:43.074Z,4.10
2023-09-07T00:11:12.756Z,3.40
2023-09-07T00:13:43.214Z,3.30
2023-09-07T00:16:13.100Z,4.40
2023-09-07T00:18:42.746Z,3.53
2023-09-07T00:21:12.994Z,3.53
2023-09-07T00:23:43.116Z,4.10
2023-09-07T00:26:13.277Z,3.90
2023-09-07T00:28:43.601Z,3.80
2023-09-07T00:31:14.028Z,3.60
2023-09-07T00:33:44.047Z,3.37
2023-09-07T00:36:14.155Z,3.83
2023-09-07T00:38:43.638Z,3.97
2023-09-07T00:41:14.796Z,3.93
2023-09-07T00:43:45.118Z,3.77
2023-09-07T00:46:14.868Z,3.80
2023-09-07T00:48:44.843Z,3.63
2023-09-07T00:51:14.655Z,3.70
2023-09-07T00:53:44.984Z,3.50
2023-09-07T00:56:17.351Z,3.50
2023-09-07T00:58:47.611Z,4.00
2023-09-07T01:01:17.911Z,4.27
2023-09-07T01:03:48.380Z,4.13
2023-09-07T01:06:28.285Z,4.07
2023-09-07T01:09:03.256Z,3.70
2023-09-07T01:11:38.343Z,3.80
2023-09-07T01:14:08.292Z,3.93
2023-09-07T01:16:40.200Z,4.10
2023-09-07T01:19:11.041Z,3.63
2023-09-07T01:21:41.477Z,4.00
2023-09-07T01:24:13.440Z,4.00
2023-09-07T01:26:43.805Z,3.77
2023-09-07T01:29:13.873Z,3.53
2023-09-07T01:31:44.680Z,4.10
2023-09-07T01:34:15.750Z,4.03
2023-09-07T01:36:45.661Z,4.40
2023-09-07T01:39:16.104Z,4.20
2023-09-07T01:41:46.102Z,3.97
2023-09-07T01:44:17.037Z,3.50
2023-09-07T01:46:47.230Z,4.07
2023-09-07T01:49:17.271Z,3.97
2023-09-07T01:51:47.599Z,3.70
2023-09-07T01:54:17.747Z,4.03
2023-09-07T01:56:47.468Z,3.80
2023-09-07T01:59:17.825Z,4.20
2023-09-07T02:01:48.101Z,4.50
2023-09-07T02:04:18.418Z,4.07
2023-09-07T02:06:48.721Z,5.00
2023-09-07T02:09:18.443Z,5.07
2023-09-07T02:11:48.751Z,4.73
2023-09-07T02:14:18.927Z,4.87
2023-09-07T02:16:49.571Z,5.30
2023-09-07T02:19:23.163Z,5.57
2023-09-07T02:21:53.935Z,5.73
2023-09-07T02:24:24.264Z,5.13
2023-09-07T02:26:54.590Z,5.40
2023-09-07T02:29:25.109Z,5.57
2023-09-07T02:31:55.437Z,6.23
2023-09-07T02:34:26.583Z,4.95
2023-09-07T02:36:57.927Z,4.97
2023-09-07T02:39:28.045Z,5.73
2023-09-07T02:41:58.183Z,4.80
2023-09-07T02:44:28.277Z,5.30
2023-09-07T02:46:58.806Z,4.63
2023-09-07T02:49:28.701Z,5.07
2023-09-07T02:51:59.053Z,4.57
2023-09-07T02:54:30.188Z,4.67
2023-09-07T02:57:00.523Z,4.05
2023-09-07T02:59:30.623Z,4.30
2023-09-07T03:02:01.774Z,4.83
2023-09-07T03:04:31.885Z,4.90
2023-09-07T03:07:03.650Z,4.47
2023-09-07T03:12:04.915Z,4.30
2023-09-07T03:14:35.025Z,4.62
2023-09-07T03:17:06.291Z,4.00
2023-09-07T03:19:38.949Z,4.45
2023-09-07T03:22:09.707Z,4.87
2023-09-07T03:24:39.395Z,4.77
2023-09-07T03:27:11.689Z,4.90
2023-09-07T03:29:42.694Z,4.83
2023-09-07T03:32:12.945Z,4.57
2023-09-07T03:34:43.179Z,4.70
2023-09-07T03:37:13.172Z,5.10
2023-09-07T03:39:43.565Z,4.27
2023-09-07T03:42:13.633Z,4.53
2023-09-07T03:44:43.808Z,4.73
2023-09-07T03:47:16.541Z,5.37
2023-09-07T03:49:46.918Z,5.37
2023-09-07T03:52:17.035Z,4.70
2023-09-07T03:54:46.764Z,4.70
2023-09-07T03:57:16.656Z,4.60
2023-09-07T03:59:46.561Z,4.40
2023-09-07T04:02:16.793Z,4.30
2023-09-07T04:04:50.570Z,4.40
2023-09-07T04:07:20.807Z,4.80
2023-09-07T04:09:53.184Z,4.40
2023-09-07T04:12:24.524Z,4.07
2023-09-07T04:14:54.906Z,4.10
2023-09-07T04:17:24.802Z,4.53
2023-09-07T04:19:55.096Z,4.63
2023-09-07T04:22:25.217Z,3.97
2023-09-07T04:24:55.604Z,4.97
2023-09-07T04:27:26.720Z,4.37
2023-09-07T04:29:57.263Z,3.90
2023-09-07T04:32:28.623Z,4.58
2023-09-07T04:35:00.233Z,4.13
2023-09-07T04:40:00.064Z,4.00
2023-09-07T04:42:30.027Z,4.27
2023-09-07T04:45:00.374Z,4.50
2023-09-07T04:47:30.713Z,4.43
2023-09-07T04:50:01.242Z,4.20
2023-09-07T04:52:31.756Z,4.13
2023-09-07T04:55:01.887Z,4.53
2023-09-07T04:57:33.426Z,4.57
2023-09-07T05:00:05.014Z,4.67
2023-09-07T05:02:39.188Z,4.80
2023-09-07T05:05:11.293Z,4.67
2023-09-07T05:10:12.998Z,4.07
2023-09-07T05:15:13.666Z,3.70
2023-09-07T05:17:43.595Z,4.53
2023-09-07T05:20:14.837Z,4.33
2023-09-07T05:22:44.835Z,5.05
2023-09-07T05:25:15.383Z,4.37
2023-09-07T05:27:45.698Z,4.23
2023-09-07T05:30:16.430Z,4.10
2023-09-07T05:32:47.569Z,4.10
2023-09-07T05:35:18.509Z,3.90
2023-09-07T05:37:50.203Z,4.40
2023-09-07T05:40:20.388Z,4.10
2023-09-07T05:42:50.833Z,4.57
2023-09-07T05:45:21.439Z,4.33
2023-09-07T05:47:51.383Z,4.20
2023-09-07T05:50:21.388Z,4.60
2023-09-07T05:52:51.305Z,4.40
2023-09-07T05:55:21.749Z,5.23
2023-09-07T05:57:52.440Z,5.37
2023-09-07T06:00:24.545Z,5.70
2023-09-07T06:02:55.454Z,4.93
2023-09-07T06:05:26.067Z,6.15
2023-09-07T06:07:56.400Z,4.63
2023-09-07T06:10:28.555Z,4.80
2023-09-07T06:13:01.361Z,4.57
2023-09-07T06:15:32.166Z,4.40
2023-09-07T06:18:02.922Z,5.17
2023-09-07T06:20:33.375Z,4.60
2023-09-07T06:23:05.090Z,4.22
2023-09-07T06:25:35.333Z,4.33
2023-09-07T06:28:07.576Z,4.10
2023-09-07T06:30:37.739Z,5.10
2023-09-07T06:33:08.463Z,4.47
2023-09-07T06:35:39.372Z,4.47
2023-09-07T06:38:09.900Z,3.80
2023-09-07T06:40:40.223Z,3.77
2023-09-07T06:43:10.151Z,4.27
2023-09-07T06:45:40.381Z,3.97
2023-09-07T06:48:10.218Z,4.10
2023-09-07T06:50:40.341Z,4.07
2023-09-07T06:53:10.608Z,4.27
2023-09-07T06:55:41.555Z,3.90
2023-09-07T06:58:11.875Z,3.90
2023-09-07T07:00:41.794Z,4.40
2023-09-07T07:03:12.275Z,4.07
2023-09-07T07:05:43.254Z,3.83
2023-09-07T07:08:13.372Z,4.37
2023-09-07T07:10:44.589Z,4.33
2023-09-07T07:13:14.901Z,3.90
2023-09-07T07:15:45.358Z,3.72
2023-09-07T07:18:15.475Z,3.83
2023-09-07T07:20:45.943Z,3.77
2023-09-07T07:23:16.125Z,4.40
2023-09-07T07:25:46.288Z,3.43
2023-09-07T07:28:16.131Z,4.07
2023-09-07T07:30:46.391Z,3.60
2023-09-07T07:33:16.873Z,3.70
2023-09-07T07:35:47.561Z,3.62
2023-09-07T07:38:18.270Z,3.77
2023-09-07T07:40:48.371Z,3.40
2023-09-07T07:43:19.145Z,3.83
2023-09-07T07:45:49.505Z,4.10
2023-09-07T07:48:19.591Z,3.77
2023-09-07T07:50:49.259Z,4.37
2023-09-07T07:53:19.881Z,4.30
2023-09-07T07:55:50.940Z,4.85
2023-09-07T07:58:24.550Z,4.57
2023-09-07T08:00:58.287Z,3.42
2023-09-07T08:03:29.791Z,3.63
2023-09-07T08:06:01.051Z,3.35
2023-09-07T08:08:31.839Z,4.63
2023-09-07T08:11:06.398Z,3.90
2023-09-07T08:13:37.971Z,4.90
2023-09-07T08:16:09.939Z,4.00
2023-09-07T08:18:41.427Z,3.57
2023-09-07T08:21:13.849Z,4.20
2023-09-07T08:23:44.165Z,3.62
2023-09-07T08:26:15.722Z,4.40
2023-09-07T08:28:47.352Z,3.73
2023-09-07T08:31:22.662Z,4.37
2023-09-07T08:33:53.156Z,3.50
2023-09-07T08:36:24.302Z,3.77
2023-09-07T08:38:55.232Z,3.62
2023-09-07T08:41:27.500Z,4.30
2023-09-07T08:43:59.600Z,3.97
2023-09-07T08:46:31.591Z,4.10
2023-09-07T08:49:04.465Z,3.57
2023-09-07T08:51:34.744Z,3.97
2023-09-07T08:54:04.861Z,3.40
2023-09-07T08:56:35.400Z,3.90
2023-09-07T08:59:06.605Z,3.30
2023-09-07T09:04:07.715Z,4.17
2023-09-07T09:06:37.438Z,3.00
2023-09-07T09:09:07.443Z,3.53
2023-09-07T09:11:37.708Z,3.57
2023-09-07T09:14:08.449Z,4.20
2023-09-07T09:16:38.578Z,3.40
2023-09-07T09:19:09.924Z,3.57
2023-09-07T09:21:39.526Z,3.70
2023-09-07T09:24:12.254Z,3.50
2023-09-07T09:26:42.316Z,3.53
2023-09-07T09:29:12.558Z,4.03
2023-09-07T09:31:42.787Z,3.33
2023-09-07T09:34:13.914Z,3.47
2023-09-07T09:39:25.227Z,3.17
2023-09-07T09:44:26.476Z,3.50
2023-09-07T09:46:58.902Z,3.37
2023-09-07T09:49:29.357Z,3.50
2023-09-07T09:52:00.295Z,3.58
2023-09-07T09:54:31.645Z,3.37
2023-09-07T09:57:02.164Z,3.60
2023-09-07T09:59:32.293Z,3.80
2023-09-07T10:02:03.666Z,3.30
2023-09-07T10:04:34.575Z,3.73
2023-09-07T10:07:06.593Z,3.22
2023-09-07T10:09:39.576Z,3.30
2023-09-07T10:12:16.493Z,3.10
2023-09-07T10:14:52.137Z,3.00
2023-09-07T10:17:25.783Z,3.40
2023-09-07T10:20:06.504Z,3.30
2023-09-07T10:22:37.166Z,3.47
2023-09-07T10:25:18.618Z,3.40
2023-09-07T10:27:48.862Z,2.97
2023-09-07T10:30:23.656Z,3.00
2023-09-07T10:32:53.667Z,3.37
2023-09-07T10:35:25.103Z,3.60
2023-09-07T10:37:55.534Z,4.10
2023-09-07T10:40:27.110Z,3.00
2023-09-07T10:43:06.776Z,3.30
2023-09-07T10:45:36.918Z,3.83
2023-09-07T10:48:09.330Z,3.70
2023-09-07T10:50:47.169Z,3.40
2023-09-07T10:53:25.479Z,3.43
2023-09-07T10:55:58.074Z,3.37
2023-09-07T10:58:31.386Z,2.97
2023-09-07T11:01:02.184Z,3.57
2023-09-07T11:03:33.298Z,3.40
2023-09-07T11:06:07.739Z,3.30
2023-09-07T11:08:38.497Z,3.57
2023-09-07T11:13:37.690Z,3.73
2023-09-07T11:16:10.569Z,3.30
2023-09-07T11:18:41.470Z,3.20
2023-09-07T11:21:12.786Z,5.20
2023-09-07T11:23:44.444Z,5.20
2023-09-07T11:26:16.676Z,3.80
2023-09-07T11:28:48.970Z,3.93
2023-09-07T11:31:22.166Z,3.63
2023-09-07T11:33:52.161Z,3.30
2023-09-07T11:36:25.059Z,2.70
2023-09-07T11:38:55.258Z,3.10
2023-09-07T11:41:25.376Z,3.52
2023-09-07T11:43:54.882Z,3.43
2023-09-07T11:46:25.687Z,3.43
2023-09-07T11:48:56.406Z,3.67
2023-09-07T11:51:26.675Z,3.37
2023-09-07T11:53:57.001Z,3.10
2023-09-07T11:56:27.734Z,3.47
2023-09-07T11:58:57.714Z,3.30
2023-09-07T12:01:28.531Z,3.40
2023-09-07T12:03:58.957Z,3.53
2023-09-07T12:06:29.435Z,3.50
2023-09-07T12:09:03.052Z,3.42
2023-09-07T12:11:33.544Z,3.27
2023-09-07T12:14:04.717Z,3.33
2023-09-07T12:16:35.252Z,3.17
2023-09-07T12:19:05.366Z,2.92
2023-09-07T12:21:35.471Z,3.45
2023-09-07T12:24:07.420Z,2.70
2023-09-07T12:26:37.367Z,3.40
2023-09-07T12:29:08.630Z,3.63
2023-09-07T12:31:38.640Z,3.20
2023-09-07T12:34:09.557Z,3.50
2023-09-07T12:36:39.706Z,3.50
2023-09-07T12:39:13.085Z,3.40
2023-09-07T12:41:42.767Z,3.27
2023-09-07T12:44:13.730Z,2.90
2023-09-07T12:46:43.824Z,3.40
2023-09-07T12:49:15.731Z,3.17
2023-09-07T12:51:46.109Z,3.30
2023-09-07T12:54:16.148Z,3.47
2023-09-07T12:56:46.346Z,3.47
2023-09-07T12:59:16.675Z,3.70
2023-09-07T13:01:48.033Z,3.63
2023-09-07T13:04:17.941Z,3.27
2023-09-07T13:06:47.356Z,3.00
2023-09-07T13:09:17.359Z,3.03
2023-09-07T13:11:47.672Z,3.33
2023-09-07T13:14:19.227Z,2.87
2023-09-07T13:16:52.281Z,3.30
2023-09-07T13:19:23.772Z,3.20
2023-09-07T13:21:53.549Z,3.42
2023-09-07T13:24:24.005Z,3.30
2023-09-07T13:26:56.573Z,2.90
2023-09-07T13:29:27.319Z,3.53
2023-09-07T13:31:59.069Z,3.77
2023-09-07T13:34:29.396Z,3.23
2023-09-07T13:36:59.116Z,3.27
2023-09-07T13:39:29.019Z,2.93
2023-09-07T13:41:58.934Z,3.23
2023-09-07T13:44:29.673Z,3.02
2023-09-07T13:47:00.351Z,3.73
2023-09-07T13:49:31.050Z,3.30
2023-09-07T13:54:29.736Z,3.70
2023-09-07T13:57:01.612Z,3.40
2023-09-07T13:59:34.081Z,3.35
2023-09-07T14:02:05.227Z,3.70
2023-09-07T14:07:03.968Z,3.40
2023-09-07T14:09:34.949Z,3.07
2023-09-07T14:12:06.290Z,3.40
2023-09-07T14:14:36.628Z,3.43
2023-09-07T14:17:07.334Z,4.03
2023-09-07T14:19:37.676Z,3.25
2023-09-07T14:22:07.285Z,3.40
2023-09-07T14:24:37.512Z,3.30
2023-09-07T14:27:09.473Z,3.40
2023-09-07T14:29:39.584Z,3.60
2023-09-07T14:32:09.705Z,3.67
2023-09-07T14:34:39.824Z,3.47
2023-09-07T14:37:09.802Z,3.37
2023-09-07T14:39:40.064Z,3.20
2023-09-07T14:42:14.572Z,3.43
2023-09-07T14:44:44.592Z,3.43
2023-09-07T14:47:16.736Z,3.40
2023-09-07T14:50:15.276Z,3.17
2023-09-07T14:52:54.891Z,4.15
2023-09-07T14:55:40.166Z,2.93
2023-09-07T14:58:23.199Z,3.37
2023-09-07T15:00:53.297Z,3.50
2023-09-07T15:03:23.341Z,3.20
2023-09-07T15:05:53.574Z,3.20
2023-09-07T15:08:24.302Z,3.00
2023-09-07T15:10:54.182Z,3.37
2023-09-07T15:13:24.300Z,2.90
2023-09-07T15:15:54.212Z,2.93
2023-09-07T15:18:24.428Z,3.47
2023-09-07T15:20:55.077Z,3.37
2023-09-07T15:23:25.274Z,3.00
2023-09-07T15:25:56.140Z,3.27
2023-09-07T15:28:26.303Z,3.30
2023-09-07T15:30:56.772Z,3.37
2023-09-07T15:33:27.119Z,3.50
2023-09-07T15:35:57.214Z,3.43
2023-09-07T15:38:27.370Z,3.43
2023-09-07T15:40:58.065Z,3.27
2023-09-07T15:43:28.144Z,3.83
2023-09-07T15:45:59.385Z,3.73
2023-09-07T15:48:29.495Z,3.70
2023-09-07T15:51:00.802Z,3.50
2023-09-07T15:53:34.340Z,3.47
2023-09-07T15:56:06.008Z,3.53
2023-09-07T15:58:36.073Z,3.40
2023-09-07T16:01:06.424Z,3.83
2023-09-07T16:03:36.578Z,4.00
2023-09-07T16:06:07.449Z,3.75
2023-09-07T16:08:37.582Z,3.90
2023-09-07T16:11:07.718Z,3.70
2023-09-07T16:13:37.601Z,3.80
2023-09-07T16:16:07.713Z,4.40
2023-09-07T16:18:38.121Z,4.17
2023-09-07T16:21:10.409Z,4.17
2023-09-07T16:23:40.481Z,3.80
2023-09-07T16:26:10.678Z,3.80
2023-09-07T16:28:40.744Z,3.77
2023-09-07T16:31:10.517Z,3.85
2023-09-07T16:33:40.828Z,3.77
2023-09-07T16:36:10.921Z,3.97
2023-09-07T16:38:41.005Z,3.60
2023-09-07T16:41:11.370Z,3.80
2023-09-07T16:43:41.682Z,3.80
2023-09-07T16:46:11.614Z,3.97
2023-09-07T16:48:41.568Z,4.27
2023-09-07T16:51:11.755Z,3.97
2023-09-07T16:53:41.986Z,3.90
2023-09-07T16:56:12.814Z,4.23
2023-09-07T16:59:08.749Z,3.80
2023-09-07T17:01:33.775Z,5.30
2023-09-07T17:04:03.946Z,4.80
2023-09-07T17:06:34.051Z,4.57
2023-09-07T17:09:04.402Z,4.50
2023-09-07T17:11:35.973Z,4.30
2023-09-07T17:14:06.259Z,4.67
2023-09-07T17:16:37.389Z,4.30
2023-09-07T17:19:08.327Z,4.50
2023-09-07T17:21:39.804Z,4.50
2023-09-07T17:24:11.382Z,3.97
2023-09-07T17:26:41.544Z,4.40
2023-09-07T17:29:11.466Z,4.30
2023-09-07T17:31:41.639Z,5.00
2023-09-07T17:34:11.945Z,4.03
2023-09-07T17:36:42.233Z,4.50
2023-09-07T17:39:11.948Z,4.20
2023-09-07T17:41:41.871Z,4.20
2023-09-07T17:44:11.895Z,3.97
2023-09-07T17:46:42.745Z,4.00
2023-09-07T17:49:13.239Z,3.98
2023-09-07T17:51:43.575Z,4.50
2023-09-07T17:54:14.360Z,3.93
2023-09-07T17:56:44.634Z,4.10
2023-09-07T17:59:14.731Z,4.37
2023-09-07T18:01:47.688Z,4.37
2023-09-07T18:04:17.629Z,3.73
2023-09-07T18:06:47.676Z,4.50
2023-09-07T18:09:19.358Z,4.50
2023-09-07T18:11:49.860Z,3.90
2023-09-07T18:14:19.524Z,4.47
2023-09-07T18:16:49.593Z,4.23
2023-09-07T18:21:50.718Z,3.87
2023-09-07T18:24:23.430Z,4.53
2023-09-07T18:26:53.629Z,4.37
2023-09-07T18:29:23.529Z,3.87
2023-09-07T18:31:53.564Z,3.50
2023-09-07T18:34:23.590Z,3.60
2023-09-07T18:36:56.177Z,3.67
2023-09-07T18:39:26.457Z,3.57
2023-09-07T18:41:56.455Z,3.40
2023-09-07T18:44:28.133Z,3.67
2023-09-07T18:46:58.289Z,3.63
2023-09-07T18:49:29.588Z,3.80
2023-09-07T18:52:00.139Z,3.55
2023-09-07T18:54:30.685Z,3.50
2023-09-07T18:57:01.049Z,3.70
2023-09-07T18:59:34.228Z,3.53
2023-09-07T19:02:05.384Z,3.50
2023-09-07T19:04:39.412Z,3.90
2023-09-07T19:07:10.037Z,3.97
2023-09-07T19:09:43.259Z,3.87
2023-09-07T19:12:13.531Z,3.87
2023-09-07T19:14:44.630Z,3.60
2023-09-07T19:17:15.443Z,3.60
2023-09-07T19:19:46.183Z,3.97
2023-09-07T19:22:15.782Z,3.63
2023-09-07T19:24:47.639Z,3.97
2023-09-07T19:27:17.971Z,3.53
2023-09-07T19:29:48.313Z,4.13
2023-09-07T19:32:20.195Z,3.80
2023-09-07T19:34:50.370Z,3.60
2023-09-07T19:37:20.117Z,3.50
2023-09-07T19:39:50.196Z,3.30
2023-09-07T19:42:20.931Z,4.37
2023-09-07T19:44:51.249Z,3.37
2023-09-07T19:47:21.574Z,3.60
2023-09-07T19:49:51.893Z,3.50
2023-09-07T19:52:21.759Z,3.77
2023-09-07T19:54:51.933Z,3.03
2023-09-07T19:57:21.949Z,3.20
2023-09-07T19:59:53.032Z,3.73
2023-09-07T20:02:23.148Z,2.92
2023-09-07T20:04:53.842Z,4.00
2023-09-07T20:07:23.750Z,3.50
2023-09-07T20:09:53.872Z,3.50
2023-09-07T20:12:24.054Z,4.00
2023-09-07T20:14:54.927Z,4.30
2023-09-07T20:17:25.327Z,3.77
2023-09-07T20:19:56.013Z,3.57
2023-09-07T20:22:28.164Z,3.50
2023-09-07T20:24:58.673Z,3.50
2023-09-07T20:27:28.589Z,4.03
2023-09-07T20:29:58.502Z,3.70
2023-09-07T20:32:29.744Z,3.97
2023-09-07T20:35:00.303Z,5.23
2023-09-07T20:37:30.128Z,6.10
2023-09-07T20:40:00.405Z,4.40
2023-09-07T20:42:30.932Z,5.13
2023-09-07T20:45:01.491Z,4.30
2023-09-07T20:47:31.970Z,4.72
2023-09-07T20:50:01.882Z,4.87
2023-09-07T20:52:31.650Z,4.67
2023-09-07T20:55:01.763Z,4.20
2023-09-07T20:57:31.651Z,3.73
2023-09-07T21:00:01.583Z,3.50
2023-09-07T21:02:32.772Z,3.20
2023-09-07T21:05:03.255Z,2.93
2023-09-07T21:07:33.765Z,3.10
2023-09-07T21:10:04.704Z,3.60
2023-09-07T21:12:34.654Z,3.37
2023-09-07T21:15:06.986Z,3.30
2023-09-07T21:17:36.914Z,3.30
2023-09-07T21:20:11.461Z,3.33
2023-09-07T21:22:41.576Z,3.17
2023-09-07T21:25:13.318Z,3.90
2023-09-07T21:27:44.740Z,3.20
2023-09-07T21:30:16.595Z,3.62
2023-09-07T21:32:47.051Z,3.80
2023-09-07T21:35:18.417Z,4.43
2023-09-07T21:37:48.506Z,3.92
2023-09-07T21:40:18.833Z,3.67
2023-09-07T21:42:49.173Z,4.27
2023-09-07T21:45:19.471Z,3.33
2023-09-07T21:47:49.615Z,3.60
2023-09-07T21:50:20.529Z,3.30
2023-09-07T21:52:50.678Z,4.13
2023-09-07T21:55:21.788Z,4.20
2023-09-07T21:57:52.130Z,4.23
2023-09-07T22:00:22.685Z,3.90
2023-09-07T22:02:53.245Z,3.60
2023-09-07T22:05:24.459Z,3.77
2023-09-07T22:07:54.830Z,4.10
2023-09-07T22:10:26.202Z,3.60
2023-09-07T22:12:59.491Z,4.08
2023-09-07T22:15:30.077Z,4.03
2023-09-07T22:18:00.084Z,3.83
2023-09-07T22:20:32.327Z,4.20
2023-09-07T22:23:05.079Z,4.33
2023-09-07T22:25:34.709Z,3.90
2023-09-07T22:28:06.344Z,3.80
2023-09-07T22:30:37.321Z,4.45
2023-09-07T22:33:08.997Z,3.85
2023-09-07T22:35:39.206Z,4.07
2023-09-07T22:38:09.561Z,4.17
2023-09-07T22:40:39.886Z,3.90
2023-09-07T22:43:10.003Z,4.27
2023-09-07T22:45:44.017Z,3.93
2023-09-07T22:48:13.972Z,3.80
2023-09-07T22:50:48.338Z,3.83
2023-09-07T22:53:22.538Z,4.23
2023-09-07T22:55:53.852Z,4.03
2023-09-07T22:58:24.010Z,3.63
2023-09-07T23:00:54.348Z,3.97
2023-09-07T23:03:24.801Z,4.37
2023-09-07T23:05:55.464Z,3.30
2023-09-07T23:08:25.527Z,4.17
2023-09-07T23:10:55.852Z,4.20
2023-09-07T23:13:26.186Z,4.43
2023-09-07T23:15:56.711Z,3.80
2023-09-07T23:18:27.138Z,4.47
2023-09-07T23:20:57.765Z,4.07
2023-09-07T23:23:28.039Z,4.13
2023-09-07T23:25:58.201Z,3.93
2023-09-07T23:28:28.530Z,3.90
2023-09-07T23:30:58.641Z,3.90
2023-09-07T23:33:28.963Z,4.20
2023-09-07T23:35:59.011Z,3.77
2023-09-07T23:38:28.998Z,3.77
2023-09-07T23:40:59.128Z,3.90
2023-09-07T23:43:29.233Z,4.37
2023-09-07T23:45:59.475Z,4.43
2023-09-07T23:48:29.682Z,3.80
2023-09-07T23:50:59.567Z,3.90
2023-09-07T23:53:29.683Z,3.90
2023-09-07T23:56:00.045Z,3.90
2023-09-07T23:58:31.194Z,3.63
